createdAt,value
2023-11-12T00:00:08.820Z,93892.04
2023-11-12T00:02:35.617Z,93891.41
2023-11-12T00:05:02.400Z,93891.20
2023-11-12T00:07:29.388Z,93892.86
2023-11-12T00:09:56.127Z,93894.64
2023-11-12T00:12:23.713Z,93891.14
2023-11-12T00:14:51.212Z,93889.95
2023-11-12T00:17:18.388Z,93891.35
2023-11-12T00:19:45.250Z,93895.25
2023-11-12T00:22:12.886Z,93898.30
2023-11-12T00:24:40.343Z,93901.70
2023-11-12T00:27:07.092Z,93908.21
2023-11-12T00:29:34.477Z,93907.55
2023-11-12T00:32:01.614Z,93909.98
2023-11-12T00:34:28.376Z,93908.05
2023-11-12T00:36:56.339Z,93911.23
2023-11-12T00:39:23.024Z,93909.09
2023-11-12T00:41:50.132Z,93913.50
2023-11-12T00:44:18.260Z,93917.48
2023-11-12T00:46:45.174Z,93915.22
2023-11-12T00:49:11.916Z,93917.55
2023-11-12T00:51:38.727Z,93923.73
2023-11-12T00:54:05.649Z,93921.23
2023-11-12T00:56:32.692Z,93920.48
2023-11-12T00:58:59.820Z,93918.60
2023-11-12T01:01:27.053Z,93917.13
2023-11-12T01:03:56.449Z,93917.67
2023-11-12T01:06:23.429Z,93922.73
2023-11-12T01:08:50.412Z,93923.13
2023-11-12T01:11:17.233Z,93923.58
2023-11-12T01:13:44.349Z,93925.31
2023-11-12T01:16:11.308Z,93925.42
2023-11-12T01:18:40.989Z,93926.27
2023-11-12T01:21:08.095Z,93927.57
2023-11-12T01:23:35.348Z,93930.68
2023-11-12T01:26:02.394Z,93937.38
2023-11-12T01:28:34.801Z,93936.99
2023-11-12T01:31:02.808Z,93939.08
2023-11-12T01:33:30.202Z,93931.91
2023-11-12T01:35:57.421Z,93934.84
2023-11-12T01:38:24.375Z,93930.72
2023-11-12T01:40:51.448Z,93922.73
2023-11-12T01:43:19.906Z,93921.59
2023-11-12T01:45:46.641Z,93924.83
2023-11-12T01:48:14.607Z,93922.20
2023-11-12T01:50:43.263Z,93929.27
2023-11-12T01:53:13.822Z,93936.38
2023-11-12T01:55:41.500Z,93939.77
2023-11-12T01:58:12.229Z,93946.49
2023-11-12T02:00:40.371Z,93942.36
2023-11-12T02:03:09.678Z,93949.66
2023-11-12T02:05:36.717Z,93951.21
2023-11-12T02:08:06.658Z,93956.45
2023-11-12T02:10:36.208Z,93954.89
2023-11-12T02:13:07.512Z,93962.64
2023-11-12T02:15:34.924Z,93970.06
2023-11-12T02:18:01.800Z,93967.84
2023-11-12T02:20:28.525Z,93969.93
2023-11-12T02:22:55.356Z,93969.60
2023-11-12T02:25:22.296Z,93972.44
2023-11-12T02:27:49.216Z,93972.29
2023-11-12T02:30:19.419Z,93978.67
2023-11-12T02:32:46.296Z,93979.89
2023-11-12T02:35:13.766Z,93988.05
2023-11-12T02:37:40.708Z,93994.23
2023-11-12T02:40:08.652Z,93997.77
2023-11-12T02:42:37.093Z,94001.84
2023-11-12T02:45:05.590Z,94000.52
2023-11-12T02:47:32.832Z,94005.63
2023-11-12T02:50:06.158Z,94013.93
2023-11-12T02:52:33.737Z,94013.83
2023-11-12T02:55:00.984Z,94014.68
2023-11-12T02:57:28.188Z,94020.89
2023-11-12T02:59:55.192Z,94019.84
2023-11-12T03:02:22.792Z,94019.60
2023-11-12T03:04:51.288Z,94027.33
2023-11-12T03:07:20.921Z,94031.32
2023-11-12T03:09:48.266Z,94033.83
2023-11-12T03:12:15.921Z,94034.16
2023-11-12T03:14:43.838Z,94037.81
2023-11-12T03:17:10.672Z,94041.57
2023-11-12T03:19:38.291Z,94048.28
2023-11-12T03:22:05.394Z,94050.26
2023-11-12T03:24:32.553Z,94053.02
2023-11-12T03:26:59.542Z,94058.70
2023-11-12T03:29:26.251Z,94061.20
2023-11-12T03:31:54.656Z,94059.52
2023-11-12T03:34:22.672Z,94069.12
2023-11-12T03:36:49.761Z,94072.67
2023-11-12T03:39:17.951Z,94075.00
2023-11-12T03:41:44.834Z,94081.23
2023-11-12T03:44:11.618Z,94084.15
2023-11-12T03:46:38.500Z,94091.70
2023-11-12T03:49:05.363Z,94091.13
2023-11-12T03:51:35.760Z,94092.79
2023-11-12T03:54:02.984Z,94096.81
2023-11-12T03:56:30.540Z,94090.27
2023-11-12T03:58:57.757Z,94095.62
2023-11-12T04:01:24.888Z,94098.34
2023-11-12T04:03:52.338Z,94098.48
2023-11-12T04:06:20.326Z,94097.28
2023-11-12T04:08:47.234Z,94102.61
2023-11-12T04:11:14.363Z,94100.40
2023-11-12T04:13:41.181Z,94102.59
2023-11-12T04:16:09.211Z,94106.20
2023-11-12T04:18:36.735Z,94113.71
2023-11-12T04:21:06.235Z,94120.06
2023-11-12T04:23:33.155Z,94121.41
2023-11-12T04:25:59.977Z,94124.24
2023-11-12T04:28:27.678Z,94122.97
2023-11-12T04:30:55.589Z,94128.77
2023-11-12T04:33:22.451Z,94134.71
2023-11-12T04:35:50.583Z,94138.34
2023-11-12T04:38:18.279Z,94140.53
2023-11-12T04:40:47.626Z,94140.45
2023-11-12T04:43:16.311Z,94145.00
2023-11-12T04:45:43.457Z,94149.77
2023-11-12T04:48:11.849Z,94156.19
2023-11-12T04:50:39.262Z,94166.36
2023-11-12T04:53:06.804Z,94168.55
2023-11-12T04:55:34.645Z,94177.89
2023-11-12T04:58:08.035Z,94180.40
2023-11-12T05:00:34.818Z,94188.14
2023-11-12T05:03:05.509Z,94189.54
2023-11-12T05:05:32.638Z,94188.27
2023-11-12T05:07:59.526Z,94192.09
2023-11-12T05:10:44.116Z,94194.45
2023-11-12T05:13:14.007Z,94197.93
2023-11-12T05:15:41.552Z,94203.20
2023-11-12T05:18:08.835Z,94206.50
2023-11-12T05:20:35.724Z,94208.96
2023-11-12T05:23:02.511Z,94211.84
2023-11-12T05:25:30.234Z,94212.23
2023-11-12T05:27:56.971Z,94218.02
2023-11-12T05:30:23.853Z,94222.34
2023-11-12T05:32:51.476Z,94225.95
2023-11-12T05:35:19.703Z,94230.55
2023-11-12T05:37:48.042Z,94233.64
2023-11-12T05:40:15.128Z,94238.84
2023-11-12T05:42:42.750Z,94241.85
2023-11-12T05:45:10.436Z,94244.48
2023-11-12T05:47:37.316Z,94251.29
2023-11-12T05:50:04.482Z,94260.14
2023-11-12T05:52:31.215Z,94268.66
2023-11-12T05:54:58.003Z,94273.83
2023-11-12T05:57:24.850Z,94283.19
2023-11-12T05:59:51.592Z,94288.16
2023-11-12T06:02:18.307Z,94296.70
2023-11-12T06:04:45.105Z,94304.22
2023-11-12T06:07:12.885Z,94305.55
2023-11-12T06:09:39.692Z,94311.04
2023-11-12T06:12:08.384Z,94315.19
2023-11-12T06:14:37.150Z,94322.44
2023-11-12T06:17:06.885Z,94331.67
2023-11-12T06:19:33.689Z,94337.48
2023-11-12T06:22:01.743Z,94342.98
2023-11-12T06:24:29.219Z,94349.71
2023-11-12T06:26:56.124Z,94355.98
2023-11-12T06:29:24.378Z,94362.96
2023-11-12T06:31:51.802Z,94366.27
2023-11-12T06:34:19.458Z,94369.15
2023-11-12T06:36:46.380Z,94371.61
2023-11-12T06:39:14.129Z,94375.21
2023-11-12T06:41:41.797Z,94376.51
2023-11-12T06:44:13.081Z,94378.30
2023-11-12T06:46:46.589Z,94385.76
2023-11-12T06:49:14.451Z,94387.45
2023-11-12T06:51:41.255Z,94390.84
2023-11-12T06:54:09.534Z,94397.15
2023-11-12T06:56:36.282Z,94397.78
2023-11-12T06:59:03.477Z,94397.55
2023-11-12T07:01:30.428Z,94400.98
2023-11-12T07:03:57.712Z,94406.99
2023-11-12T07:06:24.484Z,94404.36
2023-11-12T07:08:51.198Z,94410.34
2023-11-12T07:11:17.905Z,94407.16
2023-11-12T07:13:44.697Z,94410.32
2023-11-12T07:16:17.047Z,94414.10
2023-11-12T07:21:25.328Z,94419.29
2023-11-12T07:23:52.239Z,94424.64
2023-11-12T07:26:19.014Z,94425.25
2023-11-12T07:28:46.132Z,94428.73
2023-11-12T07:31:14.206Z,94431.83
2023-11-12T07:33:40.939Z,94444.46
2023-11-12T07:36:08.045Z,94445.40
2023-11-12T07:38:35.873Z,94448.73
2023-11-12T07:41:03.662Z,94452.35
2023-11-12T07:43:30.383Z,94454.75
2023-11-12T07:45:57.582Z,94455.89
2023-11-12T07:48:24.366Z,94458.85
2023-11-12T07:50:51.386Z,94460.19
2023-11-12T07:53:18.152Z,94462.02
2023-11-12T07:55:44.991Z,94466.44
2023-11-12T07:58:11.862Z,94466.41
2023-11-12T08:00:38.681Z,94472.39
2023-11-12T08:03:05.508Z,94476.70
2023-11-12T08:05:32.433Z,94481.34
2023-11-12T08:07:59.213Z,94483.86
2023-11-12T08:10:25.908Z,94491.27
2023-11-12T08:12:52.798Z,94492.33
2023-11-12T08:15:19.503Z,94494.17
2023-11-12T08:17:47.982Z,94497.03
2023-11-12T08:20:15.999Z,94497.77
2023-11-12T08:22:43.974Z,94505.59
2023-11-12T08:25:11.082Z,94510.58
2023-11-12T08:27:38.813Z,94514.84
2023-11-12T08:30:06.281Z,94524.35
2023-11-12T08:32:35.635Z,94526.93
2023-11-12T08:35:02.663Z,94532.42
2023-11-12T08:37:29.529Z,94534.45
2023-11-12T08:39:56.436Z,94535.05
2023-11-12T08:42:24.683Z,94537.41
2023-11-12T08:44:53.591Z,94542.27
2023-11-12T08:47:21.293Z,94546.10
2023-11-12T08:49:48.278Z,94548.73
2023-11-12T08:52:15.439Z,94552.15
2023-11-12T08:54:42.737Z,94559.34
2023-11-12T08:57:12.743Z,94561.11
2023-11-12T08:59:40.349Z,94562.09
2023-11-12T09:02:07.194Z,94564.12
2023-11-12T09:04:37.296Z,94567.70
2023-11-12T09:07:04.537Z,94566.09
2023-11-12T09:09:33.610Z,94566.95
2023-11-12T09:12:00.380Z,94567.79
2023-11-12T09:14:27.197Z,94566.48
2023-11-12T09:16:54.271Z,94569.02
2023-11-12T09:19:21.087Z,94570.63
2023-11-12T09:21:47.907Z,94572.33
2023-11-12T09:24:14.720Z,94573.14
2023-11-12T09:26:41.525Z,94577.21
2023-11-12T09:29:09.917Z,94572.29
2023-11-12T09:31:36.673Z,94567.65
2023-11-12T09:34:03.671Z,94572.48
2023-11-12T09:36:30.587Z,94574.02
2023-11-12T09:38:57.382Z,94582.48
2023-11-12T09:41:24.751Z,94582.70
2023-11-12T09:43:54.685Z,94584.84
2023-11-12T09:46:23.637Z,94581.30
2023-11-12T09:48:52.642Z,94583.16
2023-11-12T09:51:20.817Z,94587.95
2023-11-12T09:53:50.990Z,94589.73
2023-11-12T09:56:17.945Z,94593.67
2023-11-12T09:58:46.269Z,94592.70
2023-11-12T10:01:14.252Z,94592.83
2023-11-12T10:03:47.212Z,94585.88
2023-11-12T10:06:14.600Z,94590.50
2023-11-12T10:08:41.921Z,94592.27
2023-11-12T10:11:19.109Z,94592.45
2023-11-12T10:13:47.878Z,94593.02
2023-11-12T10:16:29.629Z,94596.15
2023-11-12T10:19:13.980Z,94600.08
2023-11-12T10:21:58.037Z,94601.45
2023-11-12T10:24:29.850Z,94597.97
2023-11-12T10:27:01.085Z,94595.33
2023-11-12T10:29:28.220Z,94603.06
2023-11-12T10:31:55.297Z,94605.11
2023-11-12T10:34:24.306Z,94605.38
2023-11-12T10:37:20.029Z,94606.23
2023-11-12T10:39:47.564Z,94609.33
2023-11-12T10:42:14.302Z,94607.66
2023-11-12T10:44:41.597Z,94604.05
2023-11-12T10:47:12.082Z,94599.33
2023-11-12T10:49:41.343Z,94605.75
2023-11-12T10:52:09.355Z,94601.61
2023-11-12T10:54:37.652Z,94600.85
2023-11-12T10:57:05.493Z,94607.34
2023-11-12T10:59:35.845Z,94614.41
2023-11-12T11:02:03.782Z,94609.71
2023-11-12T11:04:34.303Z,94615.14
2023-11-12T11:07:01.496Z,94615.15
2023-11-12T11:09:29.192Z,94613.00
2023-11-12T11:11:56.835Z,94616.84
2023-11-12T11:14:33.243Z,94615.39
2023-11-12T11:17:00.444Z,94620.48
2023-11-12T11:19:45.343Z,94626.36
2023-11-12T11:22:26.994Z,94626.08
2023-11-12T11:24:55.578Z,94634.36
2023-11-12T11:27:26.803Z,94638.95
2023-11-12T11:30:13.709Z,94639.73
2023-11-12T11:32:55.071Z,94646.02
2023-11-12T11:35:24.925Z,94653.77
2023-11-12T11:38:13.623Z,94660.17
2023-11-12T11:40:48.451Z,94659.42
2023-11-12T11:43:24.131Z,94665.73
2023-11-12T11:46:11.331Z,94669.44
2023-11-12T11:48:44.549Z,94677.21
2023-11-12T11:51:34.465Z,94681.14
2023-11-12T11:54:05.477Z,94682.80
2023-11-12T11:56:32.992Z,94684.16
2023-11-12T11:59:00.134Z,94688.91
2023-11-12T12:01:26.925Z,94687.35
2023-11-12T12:04:06.651Z,94690.38
2023-11-12T12:06:34.153Z,94693.23
2023-11-12T12:09:01.087Z,94687.27
2023-11-12T12:11:28.001Z,94691.55
2023-11-12T12:13:57.288Z,94693.74
2023-11-12T12:16:32.104Z,94694.61
2023-11-12T12:19:00.020Z,94697.50
2023-11-12T12:21:26.897Z,94697.34
2023-11-12T12:23:54.131Z,94699.02
2023-11-12T12:26:25.350Z,94700.55
2023-11-12T12:28:52.992Z,94703.58
2023-11-12T12:31:20.760Z,94701.96
2023-11-12T12:34:08.744Z,94703.25
2023-11-12T12:36:36.513Z,94709.20
2023-11-12T12:39:11.648Z,94716.86
2023-11-12T12:41:38.560Z,94716.10
2023-11-12T12:44:05.342Z,94727.23
2023-11-12T12:46:52.353Z,94725.69
2023-11-12T12:49:33.072Z,94727.23
2023-11-12T12:52:03.115Z,94729.13
2023-11-12T12:54:31.162Z,94730.38
2023-11-12T12:56:59.999Z,94735.84
2023-11-12T12:59:35.562Z,94741.85
2023-11-12T13:02:03.283Z,94740.05
2023-11-12T13:04:31.326Z,94742.00
2023-11-12T13:07:00.877Z,94745.33
2023-11-12T13:09:32.354Z,94745.36
2023-11-12T13:11:59.242Z,94752.13
2023-11-12T13:14:26.437Z,94750.64
2023-11-12T13:16:54.503Z,94755.55
2023-11-12T13:19:24.151Z,94758.38
2023-11-12T13:21:57.075Z,94760.40
2023-11-12T13:24:29.765Z,94760.42
2023-11-12T13:26:58.209Z,94764.64
2023-11-12T13:29:27.656Z,94768.35
2023-11-12T13:31:57.472Z,94770.52
2023-11-12T13:34:24.575Z,94773.58
2023-11-12T13:36:51.886Z,94776.05
2023-11-12T13:39:18.871Z,94779.96
2023-11-12T13:41:48.748Z,94781.86
2023-11-12T13:44:15.925Z,94780.23
2023-11-12T13:46:43.500Z,94785.05
2023-11-12T13:49:10.467Z,94788.33
2023-11-12T13:51:41.406Z,94793.29
2023-11-12T13:54:11.043Z,94795.14
2023-11-12T13:56:39.555Z,94794.80
2023-11-12T13:59:06.455Z,94795.27
2023-11-12T14:01:33.379Z,94798.31
2023-11-12T14:04:01.165Z,94806.15
2023-11-12T14:06:28.193Z,94807.22
2023-11-12T14:08:55.762Z,94813.09
2023-11-12T14:11:22.872Z,94821.97
2023-11-12T14:13:51.335Z,94823.41
2023-11-12T14:16:23.726Z,94830.31
2023-11-12T14:18:50.563Z,94829.73
2023-11-12T14:21:18.429Z,94832.09
2023-11-12T14:23:45.353Z,94833.92
2023-11-12T14:26:13.252Z,94839.56
2023-11-12T14:28:41.817Z,94842.84
2023-11-12T14:31:11.250Z,94841.13
2023-11-12T14:33:40.387Z,94843.89
2023-11-12T14:36:10.947Z,94847.36
2023-11-12T14:38:37.900Z,94850.64
2023-11-12T14:41:05.009Z,94848.16
2023-11-12T14:43:38.406Z,94854.86
2023-11-12T14:46:06.213Z,94855.16
2023-11-12T14:48:34.019Z,94857.41
2023-11-12T14:51:05.750Z,94861.11
2023-11-12T14:53:32.966Z,94860.29
2023-11-12T14:55:59.680Z,94860.50
2023-11-12T14:58:26.868Z,94861.00
2023-11-12T15:00:55.160Z,94863.35
2023-11-12T15:03:23.632Z,94861.42
2023-11-12T15:05:50.566Z,94865.48
2023-11-12T15:08:17.323Z,94864.73
2023-11-12T15:10:44.039Z,94864.22
2023-11-12T15:13:10.737Z,94869.58
2023-11-12T15:15:38.023Z,94874.92
2023-11-12T15:18:07.133Z,94867.67
2023-11-12T15:20:35.687Z,94874.54
2023-11-12T15:23:02.446Z,94874.67
2023-11-12T15:25:29.321Z,94881.60
2023-11-12T15:27:56.149Z,94880.99
2023-11-12T15:30:25.149Z,94880.52
2023-11-12T15:32:52.096Z,94883.82
2023-11-12T15:35:19.749Z,94889.09
2023-11-12T15:37:46.714Z,94897.49
2023-11-12T15:40:17.826Z,94899.88
2023-11-12T15:42:45.833Z,94902.84
2023-11-12T15:45:16.328Z,94902.61
2023-11-12T15:47:47.825Z,94904.86
2023-11-12T15:50:15.086Z,94908.45
2023-11-12T15:52:42.805Z,94908.72
2023-11-12T15:55:13.106Z,94907.54
2023-11-12T15:57:41.322Z,94914.81
2023-11-12T16:00:13.767Z,94918.41
2023-11-12T16:02:41.821Z,94921.73
2023-11-12T16:05:10.315Z,94922.30
2023-11-12T16:07:37.066Z,94922.86
2023-11-12T16:10:05.352Z,94922.94
2023-11-12T16:12:33.690Z,94932.23
2023-11-12T16:15:05.133Z,94943.20
2023-11-12T16:17:32.601Z,94945.20
2023-11-12T16:20:00.133Z,94949.73
2023-11-12T16:22:26.946Z,94949.46
2023-11-12T16:24:53.659Z,94954.05
2023-11-12T16:27:22.463Z,94953.73
2023-11-12T16:29:49.386Z,94957.80
2023-11-12T16:32:20.011Z,94946.74
2023-11-12T16:34:46.786Z,94948.61
2023-11-12T16:37:13.790Z,94951.84
2023-11-12T16:39:45.837Z,94955.26
2023-11-12T16:42:15.027Z,94955.39
2023-11-12T16:44:42.908Z,94954.41
2023-11-12T16:47:11.450Z,94957.99
2023-11-12T16:49:38.658Z,94962.95
2023-11-12T16:52:05.982Z,94966.79
2023-11-12T16:54:34.083Z,94967.70
2023-11-12T16:57:05.025Z,94966.01
2023-11-12T16:59:31.853Z,94972.58
2023-11-12T17:01:58.747Z,94974.23
2023-11-12T17:04:27.646Z,94974.05
2023-11-12T17:06:55.197Z,94971.59
2023-11-12T17:09:22.660Z,94976.20
2023-11-12T17:11:49.388Z,94970.07
2023-11-12T17:14:16.686Z,94968.80
2023-11-12T17:16:46.099Z,94965.13
2023-11-12T17:19:14.023Z,94972.20
2023-11-12T17:21:41.515Z,94970.70
2023-11-12T17:24:11.646Z,94969.79
2023-11-12T17:26:38.467Z,94974.27
2023-11-12T17:29:05.471Z,94971.50
2023-11-12T17:31:33.356Z,94974.92
2023-11-12T17:34:00.520Z,94974.33
2023-11-12T17:36:28.042Z,94975.77
2023-11-12T17:38:55.641Z,94980.02
2023-11-12T17:41:26.043Z,94984.35
2023-11-12T17:43:53.841Z,94986.77
2023-11-12T17:46:22.779Z,94984.77
2023-11-12T17:48:51.030Z,94990.14
2023-11-12T17:51:19.848Z,94989.92
2023-11-12T17:53:47.088Z,94989.89
2023-11-12T17:56:14.005Z,94993.45
2023-11-12T17:58:40.720Z,94990.62
2023-11-12T18:01:09.488Z,94995.78
2023-11-12T18:03:37.746Z,94995.61
2023-11-12T18:06:07.021Z,95001.95
2023-11-12T18:08:34.080Z,95009.34
2023-11-12T18:11:01.500Z,95008.31
2023-11-12T18:13:30.601Z,95012.30
2023-11-12T18:15:58.359Z,95013.77
2023-11-12T18:18:28.468Z,95015.50
2023-11-12T18:20:55.575Z,95015.31
2023-11-12T18:23:28.641Z,95016.13
2023-11-12T18:26:01.955Z,95015.41
2023-11-12T18:28:29.118Z,95020.70
2023-11-12T18:30:56.547Z,95020.50
2023-11-12T18:33:23.724Z,95020.10
2023-11-12T18:35:50.517Z,95020.92
2023-11-12T18:38:18.391Z,95019.83
2023-11-12T18:40:47.499Z,95018.71
2023-11-12T18:43:16.059Z,95019.14
2023-11-12T18:45:42.967Z,95020.80
2023-11-12T18:48:10.908Z,95020.08
2023-11-12T18:50:38.155Z,95025.59
2023-11-12T18:53:05.333Z,95028.41
2023-11-12T18:55:32.097Z,95029.05
2023-11-12T18:57:59.258Z,95028.23
2023-11-12T19:00:26.342Z,95029.63
2023-11-12T19:02:56.531Z,95033.14
2023-11-12T19:05:23.466Z,95034.46
2023-11-12T19:07:50.249Z,95038.52
2023-11-12T19:10:23.181Z,95041.70
2023-11-12T19:12:50.456Z,95040.32
2023-11-12T19:15:17.442Z,95039.67
2023-11-12T19:17:45.902Z,95042.73
2023-11-12T19:20:14.764Z,95045.30
2023-11-12T19:22:42.421Z,95052.77
2023-11-12T19:25:11.057Z,95051.94
2023-11-12T19:27:39.503Z,95054.80
2023-11-12T19:30:14.962Z,95049.98
2023-11-12T19:32:44.028Z,95052.05
2023-11-12T19:35:12.019Z,95057.25
2023-11-12T19:37:39.408Z,95061.10
2023-11-12T19:40:08.623Z,95064.27
2023-11-12T19:42:35.602Z,95067.00
2023-11-12T19:45:05.600Z,95070.77
2023-11-12T19:47:32.771Z,95073.34
2023-11-12T19:50:01.928Z,95072.45
2023-11-12T19:52:28.991Z,95077.36
2023-11-12T19:54:55.812Z,95077.92
2023-11-12T19:57:22.627Z,95084.00
2023-11-12T19:59:49.347Z,95081.16
2023-11-12T20:02:20.049Z,95088.95
2023-11-12T20:04:46.996Z,95096.25
2023-11-12T20:07:14.136Z,95097.00
2023-11-12T20:09:40.918Z,95094.84
2023-11-12T20:12:08.554Z,95099.03
2023-11-12T20:14:37.274Z,95099.17
2023-11-12T20:17:04.000Z,95106.67
2023-11-12T20:19:31.317Z,95106.39
2023-11-12T20:21:58.039Z,95113.52
2023-11-12T20:24:26.270Z,95116.35
2023-11-12T20:26:54.908Z,95119.80
2023-11-12T20:29:21.711Z,95120.02
2023-11-12T20:31:54.159Z,95118.76
2023-11-12T20:34:21.791Z,95126.20
2023-11-12T20:36:50.522Z,95123.15
2023-11-12T20:39:17.697Z,95125.23
2023-11-12T20:41:46.331Z,95123.46
2023-11-12T20:44:14.649Z,95124.56
2023-11-12T20:46:45.502Z,95126.69
2023-11-12T20:49:17.598Z,95127.15
2023-11-12T20:51:46.043Z,95124.73
2023-11-12T20:54:14.016Z,95125.92
2023-11-12T20:56:41.083Z,95125.27
2023-11-12T20:59:12.883Z,95123.09
2023-11-12T21:01:39.942Z,95128.92
2023-11-12T21:04:11.444Z,95133.52
2023-11-12T21:06:41.553Z,95143.45
2023-11-12T21:09:09.069Z,95141.51
2023-11-12T21:11:39.838Z,95144.32
2023-11-12T21:14:10.776Z,95145.49
2023-11-12T21:16:38.163Z,95148.67
2023-11-12T21:19:06.208Z,95147.86
2023-11-12T21:21:33.695Z,95151.22
2023-11-12T21:24:05.526Z,95152.98
2023-11-12T21:26:33.896Z,95151.20
2023-11-12T21:29:00.747Z,95151.52
2023-11-12T21:31:27.853Z,95150.90
2023-11-12T21:33:54.944Z,95153.77
2023-11-12T21:36:21.675Z,95155.48
2023-11-12T21:38:48.362Z,95151.05
2023-11-12T21:41:15.178Z,95153.91
2023-11-12T21:43:42.312Z,95150.41
2023-11-12T21:46:10.135Z,95158.15
2023-11-12T21:48:40.194Z,95159.55
2023-11-12T21:51:07.277Z,95160.11
2023-11-12T21:53:36.069Z,95159.96
2023-11-12T21:56:04.014Z,95159.77
2023-11-12T21:58:31.108Z,95165.52
2023-11-12T22:00:58.374Z,95165.73
2023-11-12T22:03:26.582Z,95165.33
2023-11-12T22:05:54.351Z,95166.77
2023-11-12T22:08:22.273Z,95168.38
2023-11-12T22:10:49.913Z,95174.23
2023-11-12T22:13:18.422Z,95177.35
2023-11-12T22:15:45.675Z,95182.54
2023-11-12T22:18:12.553Z,95182.38
2023-11-12T22:20:40.885Z,95185.94
2023-11-12T22:23:08.074Z,95188.38
2023-11-12T22:25:34.995Z,95192.71
2023-11-12T22:28:01.734Z,95190.52
2023-11-12T22:30:28.483Z,95195.00
2023-11-12T22:32:56.394Z,95193.88
2023-11-12T22:35:23.209Z,95192.44
2023-11-12T22:37:50.196Z,95202.80
2023-11-12T22:40:20.334Z,95202.41
2023-11-12T22:42:47.277Z,95197.16
2023-11-12T22:45:14.121Z,95196.09
2023-11-12T22:47:42.260Z,95192.46
2023-11-12T22:50:12.870Z,95189.86
2023-11-12T22:52:39.738Z,95188.36
2023-11-12T22:55:06.807Z,95189.83
2023-11-12T22:57:35.271Z,95191.91
2023-11-12T23:00:06.399Z,95191.33
2023-11-12T23:02:33.319Z,95191.85
2023-11-12T23:05:00.656Z,95189.05
2023-11-12T23:07:27.816Z,95190.75
2023-11-12T23:10:07.445Z,95196.04
2023-11-12T23:12:34.605Z,95198.62
2023-11-12T23:15:01.737Z,95199.98
2023-11-12T23:17:28.415Z,95201.50
2023-11-12T23:19:55.111Z,95205.48
2023-11-12T23:22:22.404Z,95205.20
2023-11-12T23:24:49.237Z,95215.01
2023-11-12T23:27:16.504Z,95213.25
2023-11-12T23:29:48.930Z,95214.89
2023-11-12T23:32:15.959Z,95212.30
2023-11-12T23:34:43.400Z,95209.61
2023-11-12T23:37:10.709Z,95214.46
2023-11-12T23:39:37.836Z,95221.21
2023-11-12T23:42:05.193Z,95224.49
2023-11-12T23:44:31.928Z,95224.19
2023-11-12T23:46:58.717Z,95226.77
2023-11-12T23:49:25.475Z,95225.03
2023-11-12T23:51:52.336Z,95226.35
2023-11-12T23:54:19.070Z,95224.55
2023-11-12T23:56:48.355Z,95228.04
2023-11-12T23:59:15.278Z,95237.31
